createdAt,value
2023-06-29T00:01:57.070Z,19.60
2023-06-29T00:04:42.774Z,19.60
2023-06-29T00:07:28.294Z,19.70
2023-06-29T00:10:14.740Z,19.50
2023-06-29T00:13:00.292Z,19.50
2023-06-29T00:15:46.260Z,19.50
2023-06-29T00:18:31.780Z,19.60
2023-06-29T00:21:17.805Z,19.60
2023-06-29T00:24:03.907Z,19.50
2023-06-29T00:26:49.318Z,19.60
2023-06-29T00:29:34.805Z,20.10
2023-06-29T00:32:20.446Z,20.40
2023-06-29T00:35:06.395Z,19.80
2023-06-29T00:37:51.784Z,19.60
2023-06-29T00:40:37.240Z,20.00
2023-06-29T00:43:22.818Z,19.40
2023-06-29T00:46:09.130Z,19.50
2023-06-29T00:48:54.866Z,19.50
2023-06-29T00:51:40.738Z,20.00
2023-06-29T00:54:26.653Z,19.60
2023-06-29T00:57:12.923Z,19.60
2023-06-29T01:00:01.642Z,19.40
2023-06-29T01:02:47.949Z,20.10
2023-06-29T01:05:35.103Z,19.50
2023-06-29T01:08:32.317Z,19.20
2023-06-29T01:11:19.691Z,19.10
2023-06-29T01:14:07.327Z,19.40
2023-06-29T01:16:53.626Z,20.00
2023-06-29T01:19:43.529Z,19.20
2023-06-29T01:22:33.608Z,20.00
2023-06-29T01:25:19.941Z,19.10
2023-06-29T01:28:09.562Z,19.10
2023-06-29T01:30:55.134Z,19.10
2023-06-29T01:33:40.719Z,19.00
2023-06-29T01:36:38.176Z,19.10
2023-06-29T01:39:27.600Z,18.90
2023-06-29T01:42:14.201Z,18.90
2023-06-29T01:45:05.490Z,19.70
2023-06-29T01:47:51.197Z,18.90
2023-06-29T01:50:36.758Z,18.50
2023-06-29T01:53:22.330Z,18.70
2023-06-29T01:56:07.924Z,18.20
2023-06-29T01:58:53.563Z,18.20
2023-06-29T02:01:38.994Z,18.90
2023-06-29T02:04:24.439Z,18.10
2023-06-29T02:07:09.982Z,18.40
2023-06-29T02:09:55.243Z,18.00
2023-06-29T02:12:41.556Z,18.00
2023-06-29T02:15:26.895Z,17.90
2023-06-29T02:18:12.360Z,17.90
2023-06-29T02:20:59.018Z,18.00
2023-06-29T02:23:44.257Z,18.00
2023-06-29T02:26:29.707Z,18.60
2023-06-29T02:29:15.445Z,18.00
2023-06-29T02:32:00.638Z,18.10
2023-06-29T02:34:46.247Z,18.00
2023-06-29T02:37:31.964Z,17.90
2023-06-29T02:40:17.427Z,18.10
2023-06-29T02:43:02.896Z,18.50
2023-06-29T02:45:48.348Z,18.10
2023-06-29T02:48:34.002Z,18.20
2023-06-29T02:51:19.486Z,18.10
2023-06-29T02:54:04.859Z,17.90
2023-06-29T02:56:50.414Z,17.90
2023-06-29T02:59:35.976Z,17.70
2023-06-29T03:02:21.239Z,17.40
2023-06-29T03:05:07.026Z,17.20
2023-06-29T03:07:52.600Z,16.90
2023-06-29T03:10:38.037Z,17.20
2023-06-29T03:13:23.614Z,16.90
2023-06-29T03:16:11.071Z,17.30
2023-06-29T03:18:57.035Z,17.90
2023-06-29T03:21:42.488Z,18.40
2023-06-29T03:24:28.270Z,17.30
2023-06-29T03:27:13.527Z,19.10
2023-06-29T03:29:59.167Z,17.30
2023-06-29T03:32:44.761Z,17.30
2023-06-29T03:35:30.310Z,17.40
2023-06-29T03:38:18.473Z,17.30
2023-06-29T03:41:03.968Z,17.60
2023-06-29T03:43:49.368Z,17.30
2023-06-29T03:46:34.898Z,17.30
2023-06-29T03:49:20.087Z,19.50
2023-06-29T03:52:06.103Z,17.50
2023-06-29T03:54:51.263Z,17.40
2023-06-29T03:57:36.520Z,18.30
2023-06-29T04:00:22.073Z,17.60
2023-06-29T04:03:07.839Z,17.40
2023-06-29T04:05:53.674Z,17.40
2023-06-29T04:08:39.191Z,17.40
2023-06-29T04:11:24.396Z,17.50
2023-06-29T04:14:10.177Z,17.60
2023-06-29T04:16:55.953Z,17.70
2023-06-29T04:19:41.429Z,18.00
2023-06-29T04:22:26.739Z,18.40
2023-06-29T04:25:12.457Z,18.30
2023-06-29T04:27:57.781Z,17.70
2023-06-29T04:30:44.144Z,18.00
2023-06-29T04:33:29.700Z,17.70
2023-06-29T04:36:15.621Z,17.50
2023-06-29T04:39:02.169Z,17.50
2023-06-29T04:41:48.219Z,17.60
2023-06-29T04:44:33.775Z,17.80
2023-06-29T04:47:19.557Z,17.90
2023-06-29T04:50:05.467Z,18.00
2023-06-29T04:52:50.684Z,18.00
2023-06-29T04:55:38.337Z,17.80
2023-06-29T04:58:23.824Z,18.00
2023-06-29T05:01:09.360Z,18.20
2023-06-29T05:03:55.128Z,18.20
2023-06-29T05:06:40.747Z,18.00
2023-06-29T05:09:26.204Z,18.10
2023-06-29T05:12:11.832Z,19.50
2023-06-29T05:14:57.508Z,18.50
2023-06-29T05:17:44.511Z,19.20
2023-06-29T05:20:30.243Z,18.40
2023-06-29T05:23:15.508Z,19.40
2023-06-29T05:26:01.287Z,18.40
2023-06-29T05:28:56.323Z,18.40
2023-06-29T05:31:50.267Z,18.60
2023-06-29T05:34:36.821Z,18.60
2023-06-29T05:37:22.279Z,18.80
2023-06-29T05:40:08.922Z,19.20
2023-06-29T05:42:54.186Z,19.40
2023-06-29T05:45:39.513Z,19.60
2023-06-29T05:48:25.604Z,19.70
2023-06-29T05:51:11.007Z,20.40
2023-06-29T05:53:57.137Z,19.90
2023-06-29T05:56:42.756Z,20.10
2023-06-29T05:59:28.332Z,20.10
2023-06-29T06:02:14.045Z,20.90
2023-06-29T06:04:59.274Z,20.20
2023-06-29T06:07:45.063Z,20.10
2023-06-29T06:10:30.315Z,20.40
2023-06-29T06:13:15.873Z,20.90
2023-06-29T06:16:01.662Z,21.00
2023-06-29T06:18:46.936Z,21.40
2023-06-29T06:21:32.550Z,21.40
2023-06-29T06:24:17.838Z,21.50
2023-06-29T06:27:04.084Z,21.70
2023-06-29T06:29:49.386Z,21.70
2023-06-29T06:32:34.985Z,21.60
2023-06-29T06:35:20.300Z,22.00
2023-06-29T06:38:05.727Z,21.40
2023-06-29T06:40:52.382Z,21.60
2023-06-29T06:43:37.802Z,21.80
2023-06-29T06:46:23.162Z,22.10
2023-06-29T06:49:08.575Z,22.30
2023-06-29T06:51:53.968Z,23.40
2023-06-29T06:54:39.803Z,22.90
2023-06-29T06:57:25.226Z,22.90
2023-06-29T07:00:13.836Z,22.90
2023-06-29T07:02:59.409Z,22.90
2023-06-29T07:05:45.226Z,23.50
2023-06-29T07:08:31.221Z,23.10
2023-06-29T07:11:16.803Z,23.00
2023-06-29T07:14:02.381Z,23.40
2023-06-29T07:16:47.939Z,23.60
2023-06-29T07:25:12.635Z,23.50
2023-06-29T07:27:57.999Z,23.90
2023-06-29T07:30:43.903Z,24.40
2023-06-29T07:33:33.959Z,24.90
2023-06-29T07:36:22.500Z,24.70
2023-06-29T07:39:08.316Z,24.60
2023-06-29T07:41:53.587Z,24.50
2023-06-29T07:44:38.881Z,24.50
2023-06-29T07:47:24.618Z,25.40
2023-06-29T07:50:10.663Z,24.60
2023-06-29T07:52:56.139Z,24.50
2023-06-29T07:55:41.355Z,24.20
2023-06-29T08:01:18.313Z,24.50
2023-06-29T08:04:05.364Z,25.50
2023-06-29T08:06:53.645Z,25.70
2023-06-29T08:09:39.352Z,25.40
2023-06-29T08:12:26.139Z,25.70
2023-06-29T08:15:11.827Z,26.40
2023-06-29T08:17:57.395Z,26.70
2023-06-29T08:20:43.137Z,27.20
2023-06-29T08:23:28.843Z,26.40
2023-06-29T08:26:14.306Z,26.30
2023-06-29T08:28:59.766Z,26.90
2023-06-29T08:31:45.147Z,26.00
2023-06-29T08:34:30.532Z,25.70
2023-06-29T08:37:16.570Z,26.00
2023-06-29T08:40:02.788Z,26.30
2023-06-29T08:42:48.445Z,27.10
2023-06-29T08:45:34.021Z,27.10
2023-06-29T08:48:20.944Z,27.60
2023-06-29T08:51:11.573Z,28.00
2023-06-29T08:53:57.621Z,27.70
2023-06-29T08:56:43.663Z,27.70
2023-06-29T08:59:29.823Z,27.80
2023-06-29T09:02:16.303Z,27.40
2023-06-29T09:05:01.633Z,27.60
2023-06-29T09:07:46.940Z,27.10
2023-06-29T09:10:32.682Z,27.10
2023-06-29T09:13:19.755Z,27.90
2023-06-29T09:16:06.145Z,28.10
2023-06-29T09:18:55.397Z,27.70
2023-06-29T09:21:46.866Z,27.60
2023-06-29T09:24:39.253Z,28.10
2023-06-29T09:27:28.998Z,28.00
2023-06-29T09:30:21.829Z,28.30
2023-06-29T09:33:11.737Z,28.60
2023-06-29T09:35:57.048Z,28.70
2023-06-29T09:38:48.525Z,28.80
2023-06-29T09:41:52.101Z,28.60
2023-06-29T09:44:37.805Z,28.50
2023-06-29T09:50:24.403Z,28.80
2023-06-29T09:53:14.439Z,29.10
2023-06-29T09:56:04.273Z,29.30
2023-06-29T09:58:52.666Z,29.70
2023-06-29T10:01:41.550Z,29.90
2023-06-29T10:04:27.393Z,30.80
2023-06-29T10:07:16.769Z,30.60
2023-06-29T10:10:03.566Z,30.90
2023-06-29T10:12:56.440Z,30.80
2023-06-29T10:15:41.910Z,30.90
2023-06-29T10:18:32.708Z,30.30
2023-06-29T10:21:18.444Z,30.20
2023-06-29T10:24:04.814Z,30.30
2023-06-29T10:26:50.755Z,30.60
2023-06-29T10:29:51.853Z,30.50
2023-06-29T10:32:39.552Z,30.60
2023-06-29T10:35:27.205Z,30.60
2023-06-29T10:38:15.893Z,31.00
2023-06-29T10:41:01.724Z,31.00
2023-06-29T10:44:00.869Z,30.40
2023-06-29T10:46:50.066Z,30.70
2023-06-29T10:49:35.641Z,30.90
2023-06-29T10:52:25.633Z,31.00
2023-06-29T10:55:19.082Z,30.90
2023-06-29T10:58:15.105Z,30.40
2023-06-29T11:01:00.864Z,30.10
2023-06-29T11:03:46.448Z,30.40
2023-06-29T11:06:36.203Z,31.00
2023-06-29T11:09:21.709Z,31.20
2023-06-29T11:12:07.604Z,31.00
2023-06-29T11:15:09.605Z,31.00
2023-06-29T11:17:58.986Z,30.60
2023-06-29T11:20:44.642Z,30.60
2023-06-29T11:23:30.346Z,31.20
2023-06-29T11:26:15.849Z,30.80
2023-06-29T11:29:01.269Z,31.10
2023-06-29T11:31:46.690Z,30.80
2023-06-29T11:34:31.941Z,31.60
2023-06-29T11:37:21.156Z,31.90
2023-06-29T11:40:23.549Z,31.80
2023-06-29T11:43:09.167Z,31.50
2023-06-29T11:45:54.769Z,31.80
2023-06-29T11:48:40.767Z,31.90
2023-06-29T11:51:27.144Z,31.30
2023-06-29T11:54:13.344Z,31.10
2023-06-29T11:56:58.728Z,30.60
2023-06-29T11:59:45.721Z,30.40
2023-06-29T12:02:31.105Z,30.40
2023-06-29T12:05:16.753Z,30.80
2023-06-29T12:08:06.906Z,31.00
2023-06-29T12:10:52.461Z,31.00
2023-06-29T12:13:45.522Z,30.30
2023-06-29T12:19:19.513Z,30.60
2023-06-29T12:22:06.550Z,30.70
2023-06-29T12:24:52.582Z,30.70
2023-06-29T12:27:38.691Z,30.30
2023-06-29T12:30:24.450Z,29.70
2023-06-29T12:33:11.761Z,29.20
2023-06-29T12:35:59.328Z,28.90
2023-06-29T12:38:44.599Z,28.60
2023-06-29T12:41:30.669Z,29.00
2023-06-29T12:44:16.376Z,29.00
2023-06-29T12:47:02.305Z,28.80
2023-06-29T12:49:48.391Z,28.60
2023-06-29T12:52:33.553Z,28.90
2023-06-29T12:55:19.026Z,29.30
2023-06-29T12:58:04.613Z,29.90
2023-06-29T13:00:50.109Z,30.30
2023-06-29T13:03:35.547Z,30.20
2023-06-29T13:06:20.974Z,30.60
2023-06-29T13:09:06.662Z,31.10
2023-06-29T13:11:52.509Z,32.20
2023-06-29T13:14:38.285Z,31.70
2023-06-29T13:17:24.083Z,31.90
2023-06-29T13:20:10.362Z,32.70
2023-06-29T13:22:55.571Z,33.20
2023-06-29T13:25:41.124Z,32.60
2023-06-29T13:28:26.283Z,32.40
2023-06-29T13:31:11.847Z,32.20
2023-06-29T13:33:58.036Z,32.20
2023-06-29T13:36:43.486Z,32.20
2023-06-29T13:39:29.855Z,31.90
2023-06-29T13:42:16.820Z,31.50
2023-06-29T13:45:02.539Z,31.60
2023-06-29T13:47:48.104Z,31.40
2023-06-29T13:50:41.437Z,31.30
2023-06-29T13:53:27.229Z,31.10
2023-06-29T13:56:12.788Z,31.10
2023-06-29T13:58:58.539Z,31.30
2023-06-29T14:01:43.852Z,31.60
2023-06-29T14:04:29.607Z,32.40
2023-06-29T14:07:16.088Z,32.40
2023-06-29T14:10:01.600Z,32.20
2023-06-29T14:12:46.914Z,32.00
2023-06-29T14:15:33.616Z,31.90
2023-06-29T14:18:19.061Z,32.00
2023-06-29T14:21:04.553Z,32.20
2023-06-29T14:23:50.668Z,32.00
2023-06-29T14:26:36.307Z,31.70
2023-06-29T14:29:21.632Z,31.20
2023-06-29T14:32:07.659Z,30.90
2023-06-29T14:34:52.912Z,30.80
2023-06-29T14:37:38.521Z,31.10
2023-06-29T14:40:24.413Z,31.10
2023-06-29T14:43:09.947Z,31.50
2023-06-29T14:45:57.022Z,31.40
2023-06-29T14:48:42.296Z,31.70
2023-06-29T14:51:27.727Z,31.90
2023-06-29T14:54:13.369Z,31.30
2023-06-29T14:56:59.280Z,31.50
2023-06-29T14:59:44.856Z,31.40
2023-06-29T15:02:30.023Z,31.50
2023-06-29T15:05:15.922Z,31.10
2023-06-29T15:08:01.492Z,31.60
2023-06-29T15:10:47.054Z,31.30
2023-06-29T15:13:32.297Z,31.00
2023-06-29T15:16:17.919Z,30.60
2023-06-29T15:19:03.501Z,30.90
2023-06-29T15:21:50.189Z,30.80
2023-06-29T15:24:35.991Z,30.70
2023-06-29T15:27:21.186Z,31.00
2023-06-29T15:30:07.575Z,30.50
2023-06-29T15:32:53.119Z,30.40
2023-06-29T15:35:38.527Z,30.30
2023-06-29T15:38:24.028Z,30.10
2023-06-29T15:41:10.032Z,29.60
2023-06-29T15:44:01.030Z,29.50
2023-06-29T15:46:53.964Z,29.60
2023-06-29T15:49:39.781Z,29.50
2023-06-29T15:52:25.487Z,29.60
2023-06-29T15:55:11.422Z,29.70
2023-06-29T15:57:56.520Z,29.50
2023-06-29T16:00:41.986Z,29.50
2023-06-29T16:03:27.733Z,29.40
2023-06-29T16:06:12.956Z,29.30
2023-06-29T16:09:00.223Z,28.80
2023-06-29T16:11:45.845Z,28.30
2023-06-29T16:14:31.304Z,27.80
2023-06-29T16:17:17.183Z,27.50
2023-06-29T16:20:02.452Z,27.30
2023-06-29T16:22:47.790Z,27.20
2023-06-29T16:25:33.244Z,27.00
2023-06-29T16:28:18.821Z,26.60
2023-06-29T16:31:04.302Z,26.60
2023-06-29T16:33:49.868Z,26.60
2023-06-29T16:36:35.479Z,26.60
2023-06-29T16:39:20.845Z,26.00
2023-06-29T16:42:06.677Z,26.00
2023-06-29T16:44:52.194Z,25.90
2023-06-29T16:47:38.714Z,25.70
2023-06-29T16:50:24.313Z,25.50
2023-06-29T16:53:10.325Z,25.10
2023-06-29T16:55:57.219Z,25.10
2023-06-29T16:58:43.405Z,24.80
2023-06-29T17:01:28.720Z,24.90
2023-06-29T17:04:14.656Z,25.10
2023-06-29T17:07:00.224Z,24.70
2023-06-29T17:09:45.628Z,24.40
2023-06-29T17:12:31.230Z,24.30
2023-06-29T17:15:16.820Z,24.60
2023-06-29T17:18:02.324Z,24.00
2023-06-29T17:20:48.581Z,24.00
2023-06-29T17:23:34.032Z,23.90
2023-06-29T17:26:20.350Z,23.70
2023-06-29T17:29:07.484Z,24.00
2023-06-29T17:31:54.272Z,23.50
2023-06-29T17:34:39.905Z,23.40
2023-06-29T17:37:25.192Z,23.10
2023-06-29T17:40:10.951Z,23.00
2023-06-29T17:42:56.526Z,22.80
2023-06-29T17:45:41.859Z,22.50
2023-06-29T17:48:28.012Z,22.20
2023-06-29T17:51:18.784Z,22.10
2023-06-29T17:54:05.201Z,21.80
2023-06-29T17:56:50.594Z,21.40
2023-06-29T17:59:36.350Z,21.00
2023-06-29T18:02:22.253Z,20.80
2023-06-29T18:05:08.927Z,20.70
2023-06-29T18:07:55.348Z,20.70
2023-06-29T18:10:40.587Z,20.60
2023-06-29T18:13:26.159Z,20.80
2023-06-29T18:16:11.776Z,20.80
2023-06-29T18:18:57.553Z,20.70
2023-06-29T18:21:43.697Z,20.50
2023-06-29T18:24:29.201Z,20.70
2023-06-29T18:27:14.814Z,20.60
2023-06-29T18:30:01.019Z,21.40
2023-06-29T18:32:46.424Z,21.10
2023-06-29T18:35:32.023Z,21.10
2023-06-29T18:38:17.418Z,21.30
2023-06-29T18:41:03.414Z,21.30
2023-06-29T18:43:48.878Z,21.70
2023-06-29T18:46:40.406Z,21.10
2023-06-29T18:49:28.195Z,21.40
2023-06-29T18:52:17.962Z,22.00
2023-06-29T18:55:03.462Z,22.20
2023-06-29T18:57:48.641Z,21.70
2023-06-29T19:00:34.278Z,21.70
2023-06-29T19:03:19.743Z,22.50
2023-06-29T19:06:05.292Z,21.90
2023-06-29T19:08:50.917Z,21.80
2023-06-29T19:11:36.492Z,22.60
2023-06-29T19:14:22.299Z,22.00
2023-06-29T19:17:07.967Z,21.70
2023-06-29T19:19:53.662Z,21.90
2023-06-29T19:22:39.213Z,22.00
2023-06-29T19:25:24.717Z,21.50
2023-06-29T19:28:10.429Z,21.20
2023-06-29T19:30:55.830Z,20.10
2023-06-29T19:33:41.484Z,20.40
2023-06-29T19:36:31.135Z,20.00
2023-06-29T19:39:16.333Z,20.20
2023-06-29T19:42:03.560Z,20.40
2023-06-29T19:44:49.239Z,20.60
2023-06-29T19:47:34.474Z,20.60
2023-06-29T19:50:20.533Z,20.60
2023-06-29T19:53:06.074Z,20.70
2023-06-29T19:55:52.061Z,20.60
2023-06-29T19:58:37.608Z,20.50
2023-06-29T20:01:23.364Z,21.30
2023-06-29T20:04:08.901Z,20.30
2023-06-29T20:06:54.530Z,20.70
2023-06-29T20:09:40.293Z,20.70
2023-06-29T20:12:26.048Z,20.00
2023-06-29T20:15:11.579Z,20.60
2023-06-29T20:17:56.928Z,19.90
2023-06-29T20:20:42.464Z,19.70
2023-06-29T20:23:27.927Z,19.80
2023-06-29T20:26:14.093Z,19.60
2023-06-29T20:29:00.112Z,20.00
2023-06-29T20:31:45.641Z,19.90
2023-06-29T20:34:31.225Z,20.00
2023-06-29T20:37:16.693Z,20.00
2023-06-29T20:40:02.275Z,20.40
2023-06-29T20:42:47.790Z,20.90
2023-06-29T20:45:35.432Z,20.10
2023-06-29T20:48:20.769Z,20.10
2023-06-29T20:51:17.037Z,20.40
2023-06-29T20:54:03.419Z,20.20
2023-06-29T20:56:48.794Z,19.90
2023-06-29T20:59:34.971Z,19.90
2023-06-29T21:02:20.647Z,20.30
2023-06-29T21:05:07.645Z,20.10
2023-06-29T21:07:53.247Z,20.00
2023-06-29T21:10:38.851Z,20.10
2023-06-29T21:13:24.448Z,20.70
2023-06-29T21:16:09.711Z,20.10
2023-06-29T21:18:55.234Z,20.00
2023-06-29T21:21:41.341Z,20.10
2023-06-29T21:24:26.729Z,20.20
2023-06-29T21:27:18.905Z,20.20
2023-06-29T21:30:05.456Z,20.10
2023-06-29T21:32:51.122Z,20.00
2023-06-29T21:35:36.933Z,20.00
2023-06-29T21:38:25.772Z,20.00
2023-06-29T21:41:13.548Z,20.10
2023-06-29T21:43:58.815Z,20.20
2023-06-29T21:46:44.363Z,20.80
2023-06-29T21:49:30.061Z,20.40
2023-06-29T21:52:15.665Z,20.00
2023-06-29T21:55:01.235Z,20.20
2023-06-29T21:57:46.781Z,20.00
2023-06-29T22:00:33.626Z,20.40
2023-06-29T22:03:19.188Z,20.20
2023-06-29T22:06:04.774Z,20.10
2023-06-29T22:08:50.285Z,20.00
2023-06-29T22:11:39.731Z,19.90
2023-06-29T22:14:25.291Z,20.00
2023-06-29T22:17:11.517Z,20.10
2023-06-29T22:20:17.012Z,20.20
2023-06-29T22:23:02.627Z,20.10
2023-06-29T22:25:48.479Z,20.70
2023-06-29T22:28:34.240Z,20.00
2023-06-29T22:31:19.846Z,20.10
2023-06-29T22:34:05.636Z,20.10
2023-06-29T22:36:51.147Z,21.00
2023-06-29T22:39:36.832Z,20.20
2023-06-29T22:42:22.555Z,20.10
2023-06-29T22:45:08.355Z,20.00
2023-06-29T22:47:53.689Z,20.20
2023-06-29T22:50:39.343Z,20.10
2023-06-29T22:53:25.058Z,20.20
2023-06-29T22:56:10.207Z,19.80
2023-06-29T22:59:12.391Z,20.60
2023-06-29T23:01:57.832Z,20.70
2023-06-29T23:04:44.241Z,20.00
2023-06-29T23:07:30.214Z,20.00
2023-06-29T23:10:16.224Z,20.00
2023-06-29T23:13:02.827Z,20.00
2023-06-29T23:15:49.251Z,20.10
2023-06-29T23:18:35.253Z,19.80
2023-06-29T23:21:26.571Z,19.80
2023-06-29T23:24:15.928Z,19.90
2023-06-29T23:27:01.939Z,19.90
2023-06-29T23:29:47.666Z,19.80
2023-06-29T23:32:32.999Z,19.60
2023-06-29T23:35:19.092Z,19.50
2023-06-29T23:38:04.530Z,19.50
2023-06-29T23:40:49.834Z,19.80
2023-06-29T23:43:35.373Z,19.30
2023-06-29T23:46:21.722Z,19.30
2023-06-29T23:49:09.989Z,19.40
2023-06-29T23:51:55.550Z,19.40
2023-06-29T23:54:41.223Z,19.90
2023-06-29T23:57:27.017Z,19.50
